Time;durP1;ratioP1;P1;durP2;ratioP2;P2;SDS_P1;SDS_P2;PMS_P1;PMS_P2;Temp;Humidity;BMP_temperature;BMP_pressure;BME280_temperature;BME280_humidity;BME280_pressure;Samples;Min_cycle;Max_cycle;Signal;HPM_P1;HPM_P2
2023/09/21 00:00:15;;;;;;;3.22;1.75;;;;;;;18.12;96.22;99911.94;4897073;29;20172;-74
2023/09/21 00:02:46;;;;;;;6.07;2.20;;;;;;;18.15;96.26;99923.00;4897063;29;20035;-73
2023/09/21 00:05:13;;;;;;;4.90;2.90;;;;;;;18.15;95.78;99906.81;4897049;29;20053;-73
2023/09/21 00:07:38;;;;;;;4.45;2.28;;;;;;;18.17;95.50;99923.56;4896942;29;20039;-73
2023/09/21 00:10:06;;;;;;;4.70;2.03;;;;;;;18.14;95.65;99910.59;4896838;29;20040;-73
2023/09/21 00:12:33;;;;;;;2.58;1.70;;;;;;;18.17;95.57;99920.06;4897147;29;20696;-73
2023/09/21 00:14:59;;;;;;;4.45;2.42;;;;;;;18.14;95.59;99913.31;4896698;29;20053;-73
2023/09/21 00:17:24;;;;;;;3.30;1.98;;;;;;;18.17;94.10;99901.97;4896822;29;20531;-73
2023/09/21 00:19:50;;;;;;;2.97;2.30;;;;;;;18.21;93.85;99896.03;4896931;29;20036;-73
2023/09/21 00:22:16;;;;;;;4.32;2.20;;;;;;;18.24;94.17;99900.91;4896819;29;20035;-74
2023/09/21 00:24:41;;;;;;;6.60;2.10;;;;;;;18.23;93.40;99889.28;4896674;29;20680;-73
2023/09/21 00:27:07;;;;;;;3.58;1.50;;;;;;;18.25;94.04;99886.31;4896570;29;20047;-74
2023/09/21 00:29:32;;;;;;;4.38;2.00;;;;;;;18.28;94.19;99888.47;4896701;29;20064;-73
2023/09/21 00:31:58;;;;;;;2.53;1.90;;;;;;;18.28;94.18;99880.38;4896743;29;20107;-73
2023/09/21 00:34:24;;;;;;;4.25;2.10;;;;;;;18.30;92.77;99878.22;4896395;29;20028;-73
2023/09/21 00:36:50;;;;;;;5.43;1.50;;;;;;;18.32;92.38;99876.06;4896686;29;20032;-73
2023/09/21 00:39:17;;;;;;;3.20;1.67;;;;;;;18.34;92.13;99868.50;4896541;29;20128;-73
2023/09/21 00:41:42;;;;;;;5.72;2.15;;;;;;;18.31;92.35;99861.75;4895832;29;20028;-73
2023/09/21 00:44:09;;;;;;;4.40;2.05;;;;;;;18.34;92.24;99863.09;4896512;29;20094;-73
2023/09/21 00:46:38;;;;;;;3.05;1.70;;;;;;;18.22;92.88;99847.19;4896156;29;20515;-73
2023/09/21 00:49:05;;;;;;;4.25;1.88;;;;;;;18.32;91.40;99860.66;4879616;29;20392;-73
2023/09/21 00:51:32;;;;;;;5.28;1.90;;;;;;;18.33;91.84;99854.16;4894990;29;20637;-73
2023/09/21 00:53:59;;;;;;;5.60;2.08;;;;;;;18.33;91.44;99850.66;4896251;29;20037;-73
2023/09/21 00:56:27;;;;;;;2.13;1.65;;;;;;;18.33;91.65;99851.47;4879076;29;20048;-73
2023/09/21 00:58:53;;;;;;;3.30;2.05;;;;;;;18.32;91.06;99847.16;4896229;29;20392;-73
2023/09/21 01:01:27;;;;;;;3.60;2.03;;;;;;;18.33;91.80;99843.38;4879370;29;20029;-74
2023/09/21 01:03:54;;;;;;;5.30;1.98;;;;;;;18.33;91.62;99837.16;4896026;29;20048;-74
2023/09/21 01:06:20;;;;;;;3.10;1.83;;;;;;;18.28;91.87;99837.97;4895767;29;20067;-74
2023/09/21 01:08:45;;;;;;;3.80;1.80;;;;;;;18.30;91.39;99835.81;4895898;29;20041;-73
2023/09/21 01:11:15;;;;;;;4.97;1.95;;;;;;;18.25;91.42;99827.72;4895869;29;20044;-74
2023/09/21 01:13:41;;;;;;;4.93;1.67;;;;;;;18.23;91.83;99829.09;4878883;29;20063;-73
2023/09/21 01:16:10;;;;;;;5.05;1.80;;;;;;;18.10;92.46;99814.25;4895794;29;20025;-73
2023/09/21 01:18:37;;;;;;;2.90;1.92;;;;;;;18.15;92.02;99827.75;4895672;29;20036;-73
2023/09/21 01:21:06;;;;;;;3.35;2.20;;;;;;;18.10;92.64;99816.97;4895642;29;20029;-73
2023/09/21 01:23:45;;;;;;;3.00;1.95;;;;;;;18.10;92.34;99815.09;4895478;29;20039;-73
2023/09/21 01:26:11;;;;;;;5.07;1.67;;;;;;;18.08;92.89;99816.44;4895380;29;20079;-73
2023/09/21 01:28:37;;;;;;;3.75;2.00;;;;;;;18.06;93.30;99811.31;4895385;29;20047;-73
2023/09/21 01:31:03;;;;;;;4.15;2.80;;;;;;;18.04;93.05;99809.97;4895482;29;20040;-73
2023/09/21 01:33:28;;;;;;;6.82;2.85;;;;;;;17.99;93.29;99801.88;4895560;29;20040;-73
2023/09/21 01:35:54;;;;;;;3.83;2.50;;;;;;;18.00;93.29;99798.91;4895493;29;20039;-74
2023/09/21 01:38:19;;;;;;;3.53;1.90;;;;;;;17.94;94.10;99787.28;4895394;29;20171;-74
2023/09/21 01:40:46;;;;;;;4.20;2.03;;;;;;;17.92;93.80;99784.09;4895079;29;20040;-74
2023/09/21 01:43:17;;;;;;;5.00;1.88;;;;;;;17.87;94.18;99772.50;4895307;29;20498;-73
2023/09/21 01:45:44;;;;;;;5.03;1.90;;;;;;;17.87;94.25;99788.69;4895346;29;20095;-73
2023/09/21 01:48:11;;;;;;;4.47;1.55;;;;;;;17.85;94.25;99778.16;4895278;29;20035;-73
2023/09/21 01:50:43;;;;;;;6.00;2.00;;;;;;;17.82;94.71;99775.19;4895218;29;20480;-74
2023/09/21 01:53:19;;;;;;;3.42;1.80;;;;;;;17.77;94.91;99769.78;4894156;29;20048;-73
2023/09/21 01:55:49;;;;;;;7.25;2.42;;;;;;;17.78;94.42;99763.28;4895273;29;20020;-73
2023/09/21 01:58:15;;;;;;;4.88;2.40;;;;;;;17.77;93.98;99756.28;4895132;29;20039;-74
2023/09/21 02:00:43;;;;;;;4.25;1.90;;;;;;;17.81;94.76;99768.16;4893863;29;20045;-73
2023/09/21 02:03:09;;;;;;;5.07;2.42;;;;;;;17.80;93.77;99767.34;4894961;29;20056;-73
2023/09/21 02:05:41;;;;;;;4.13;1.70;;;;;;;17.80;94.68;99766.56;4894800;29;20087;-73
2023/09/21 02:08:11;;;;;;;2.83;1.73;;;;;;;17.79;94.46;99768.44;4878617;29;20040;-73
2023/09/21 02:10:38;;;;;;;2.88;1.90;;;;;;;17.75;94.66;99759.25;4895046;29;20025;-74
2023/09/21 02:13:05;;;;;;;4.50;2.22;;;;;;;17.76;94.52;99760.84;4877958;29;20048;-73
2023/09/21 02:15:32;;;;;;;5.10;2.10;;;;;;;17.75;94.58;99759.25;4894816;29;20021;-73
2023/09/21 02:17:57;;;;;;;6.80;2.20;;;;;;;17.73;94.72;99762.19;4894864;29;20040;-73
2023/09/21 02:20:23;;;;;;;1.60;1.27;;;;;;;17.71;94.94;99761.69;4894648;29;20408;-73
2023/09/21 02:23:02;;;;;;;3.28;2.25;;;;;;;17.68;95.10;99758.69;4894815;29;20491;-73
2023/09/21 02:25:32;;;;;;;4.20;1.90;;;;;;;17.65;95.31;99751.16;4894451;29;20064;-74
2023/09/21 02:27:58;;;;;;;2.88;2.08;;;;;;;17.64;95.29;99754.94;4894681;29;20117;-73
2023/09/21 02:30:24;;;;;;;3.15;2.13;;;;;;;17.60;95.72;99760.03;4894535;29;20387;-74
2023/09/21 02:32:54;;;;;;;3.83;2.15;;;;;;;17.58;95.81;99748.75;4894414;29;20043;-73
2023/09/21 02:35:22;;;;;;;4.18;1.90;;;;;;;17.57;95.34;99749.81;4877488;29;20073;-74
2023/09/21 02:37:49;;;;;;;2.08;1.65;;;;;;;17.57;95.40;99743.59;4877671;29;20028;-74
2023/09/21 02:40:16;;;;;;;2.60;1.73;;;;;;;17.56;95.96;99742.00;4894506;29;20511;-73
2023/09/21 02:42:49;;;;;;;2.05;1.50;;;;;;;17.57;95.96;99740.91;4894525;29;20047;-73
2023/09/21 02:45:18;;;;;;;5.20;1.65;;;;;;;17.53;95.50;99729.88;4894083;29;20048;-73
2023/09/21 02:47:46;;;;;;;3.70;1.83;;;;;;;17.52;95.25;99722.84;4894491;29;20029;-73
2023/09/21 02:50:20;;;;;;;2.45;1.50;;;;;;;17.56;95.60;99737.41;4894343;29;20039;-73
2023/09/21 02:52:47;;;;;;;4.15;1.95;;;;;;;17.55;95.84;99733.09;4894461;29;20021;-73
2023/09/21 02:55:20;;;;;;;6.65;2.10;;;;;;;17.54;95.78;99739.56;4892707;29;20036;-73
2023/09/21 02:57:48;;;;;;;4.95;1.65;;;;;;;17.47;95.80;99729.03;4894131;29;20772;-73
2023/09/21 03:00:21;;;;;;;2.00;1.80;;;;;;;17.52;96.28;99726.34;4894232;29;20028;-73
2023/09/21 03:02:47;;;;;;;2.10;1.80;;;;;;;17.41;96.17;99711.25;4894418;29;20047;-74
2023/09/21 03:05:13;;;;;;;6.45;2.13;;;;;;;17.50;95.91;99728.53;4895646;29;20040;-73
2023/09/21 03:07:43;;;;;;;5.72;2.70;;;;;;;17.52;96.44;99723.66;4898018;29;20059;-73
2023/09/21 03:10:10;;;;;;;2.03;1.60;;;;;;;17.52;96.20;99718.25;4898068;29;20084;-73
2023/09/21 03:12:39;;;;;;;3.22;2.10;;;;;;;17.50;96.33;99723.13;4896756;29;20041;-73
2023/09/21 03:15:15;;;;;;;5.47;2.25;;;;;;;17.51;96.32;99718.53;4897965;29;20112;-74
2023/09/21 03:17:41;;;;;;;2.08;1.50;;;;;;;17.47;95.98;99712.88;4898067;29;20156;-73
2023/09/21 03:20:12;;;;;;;2.13;1.60;;;;;;;17.49;96.77;99713.41;4897897;29;20429;-73
2023/09/21 03:22:39;;;;;;;4.13;2.30;;;;;;;17.48;96.93;99722.59;4897955;29;20025;-73
2023/09/21 03:25:11;;;;;;;5.10;1.77;;;;;;;17.41;96.54;99711.25;4897838;29;20036;-74
2023/09/21 03:27:38;;;;;;;3.15;1.65;;;;;;;17.46;96.97;99710.47;4897828;29;20041;-73
2023/09/21 03:30:05;;;;;;;4.07;1.77;;;;;;;17.42;97.14;99707.50;4897742;29;20373;-73
2023/09/21 03:32:31;;;;;;;4.15;1.95;;;;;;;17.45;97.26;99709.66;4896596;29;20100;-73
2023/09/21 03:34:56;;;;;;;2.85;1.65;;;;;;;17.49;97.21;99713.41;4896440;29;20041;-73
2023/09/21 03:37:22;;;;;;;3.65;1.67;;;;;;;17.51;96.83;99705.88;4897625;29;20066;-73
2023/09/21 03:39:47;;;;;;;3.25;2.00;;;;;;;17.52;97.03;99707.47;4896431;29;20065;-74
2023/09/21 03:42:12;;;;;;;4.75;1.60;;;;;;;17.56;97.06;99710.44;4897585;29;20114;-73
2023/09/21 03:44:38;;;;;;;4.45;1.60;;;;;;;17.57;97.14;99711.25;4880714;29;20032;-74
2023/09/21 03:47:04;;;;;;;3.53;2.17;;;;;;;17.61;96.49;99707.75;4897421;29;20384;-73
2023/09/21 03:49:30;;;;;;;3.22;1.98;;;;;;;17.64;96.29;99703.72;4897362;29;20096;-73
2023/09/21 03:51:55;;;;;;;2.80;1.95;;;;;;;17.66;96.44;99699.66;4897332;29;20480;-73
2023/09/21 03:54:21;;;;;;;2.38;1.58;;;;;;;17.70;95.89;99702.59;4897249;29;20037;-73
2023/09/21 03:56:46;;;;;;;2.50;1.58;;;;;;;17.71;95.93;99696.97;4897122;29;20032;-73
2023/09/21 03:59:12;;;;;;;3.72;1.95;;;;;;;17.76;95.67;99690.72;4880208;29;20044;-73
2023/09/21 04:01:37;;;;;;;5.55;1.77;;;;;;;17.79;95.54;99687.53;4897344;29;20032;-73
2023/09/21 04:04:17;;;;;;;4.22;1.88;;;;;;;17.80;95.79;99686.44;4897062;29;20121;-74
2023/09/21 04:06:44;;;;;;;2.72;1.85;;;;;;;17.83;95.90;99685.09;4896776;29;20092;-73
2023/09/21 04:09:10;;;;;;;3.97;2.15;;;;;;;17.81;95.45;99684.53;4897116;29;20072;-73
2023/09/21 04:11:35;;;;;;;4.15;1.90;;;;;;;17.83;95.74;99685.91;4897087;29;20028;-73
2023/09/21 04:14:03;;;;;;;3.67;2.67;;;;;;;17.78;96.17;99675.09;4896943;29;20060;-73
2023/09/21 04:16:28;;;;;;;3.55;1.42;;;;;;;17.83;96.21;99668.91;4895817;29;20131;-73
2023/09/21 04:18:55;;;;;;;4.80;2.05;;;;;;;17.88;95.66;99685.88;4896621;29;20508;-73
2023/09/21 04:21:20;;;;;;;2.80;1.80;;;;;;;17.89;95.83;99673.19;4879817;29;20041;-74
2023/09/21 04:23:47;;;;;;;5.47;2.40;;;;;;;17.88;96.68;99677.78;4896715;29;20043;-73
2023/09/21 04:26:14;;;;;;;2.38;1.70;;;;;;;17.92;96.37;99686.97;4896811;29;20036;-74
2023/09/21 04:28:40;;;;;;;5.25;2.28;;;;;;;17.96;96.72;99687.22;4896593;29;20037;-73
2023/09/21 04:31:05;;;;;;;6.20;2.58;;;;;;;17.97;96.80;99691.50;4896534;29;20039;-73
2023/09/21 04:33:31;;;;;;;4.75;2.28;;;;;;;17.98;96.67;99689.66;4896582;29;20058;-73
2023/09/21 04:35:57;;;;;;;3.45;1.70;;;;;;;17.99;96.35;99688.56;4896718;29;20033;-73
2023/09/21 04:38:22;;;;;;;3.08;1.73;;;;;;;17.98;96.87;99695.84;4896602;29;20039;-73
2023/09/21 04:40:50;;;;;;;5.45;2.33;;;;;;;17.98;96.85;99698.53;4879619;29;20072;-73
2023/09/21 04:43:17;;;;;;;3.67;1.80;;;;;;;17.98;97.50;99689.66;4896473;29;20036;-73
2023/09/21 04:45:47;;;;;;;6.70;2.10;;;;;;;17.88;97.14;99664.31;4896324;29;20560;-73
2023/09/21 04:48:13;;;;;;;4.30;2.10;;;;;;;17.98;97.32;99678.84;4879412;29;20131;-73
2023/09/21 04:50:38;;;;;;;3.08;1.75;;;;;;;17.95;98.02;99675.63;4896309;29;20127;-73
2023/09/21 04:53:03;;;;;;;4.05;2.30;;;;;;;17.95;97.77;99664.03;4896267;29;20068;-73
2023/09/21 04:55:31;;;;;;;2.85;2.30;;;;;;;17.96;97.42;99663.72;4896309;29;20033;-74
2023/09/21 04:57:57;;;;;;;2.53;1.70;;;;;;;17.95;97.31;99669.41;4895996;29;20132;-73
2023/09/21 05:00:23;;;;;;;2.30;1.73;;;;;;;17.95;97.62;99669.41;4896062;29;20048;-73
2023/09/21 05:02:48;;;;;;;3.38;1.70;;;;;;;17.94;97.70;99670.47;4896091;29;20028;-73
2023/09/21 05:05:15;;;;;;;3.15;1.95;;;;;;;17.93;97.78;99674.28;4895813;29;20624;-74
2023/09/21 05:07:41;;;;;;;3.85;2.03;;;;;;;17.93;98.46;99675.06;4896059;29;20047;-73
2023/09/21 05:10:07;;;;;;;5.80;2.45;;;;;;;17.89;98.78;99673.19;4895649;29;20071;-74
2023/09/21 05:12:34;;;;;;;3.47;2.15;;;;;;;17.91;98.36;99668.34;4894533;29;20033;-73
2023/09/21 05:14:59;;;;;;;3.03;1.90;;;;;;;17.88;98.77;99672.41;4895893;29;20033;-73
2023/09/21 05:17:25;;;;;;;4.15;2.33;;;;;;;17.89;98.78;99682.13;4895655;29;20088;-73
2023/09/21 05:19:50;;;;;;;4.80;2.03;;;;;;;17.83;99.45;99669.72;4895279;29;20900;-74
2023/09/21 05:22:16;;;;;;;9.43;2.67;;;;;;;17.84;99.54;99671.34;4877688;29;20048;-74
2023/09/21 05:24:41;;;;;;;7.75;2.47;;;;;;;17.84;99.83;99668.66;4894973;29;20084;-73
2023/09/21 05:27:08;;;;;;;4.18;2.50;;;;;;;17.84;100.00;99668.66;4877817;29;20055;-74
2023/09/21 05:29:33;;;;;;;4.45;2.05;;;;;;;17.84;99.86;99663.25;4894611;29;20032;-73
2023/09/21 05:31:59;;;;;;;4.03;1.98;;;;;;;17.85;99.90;99669.44;4893453;29;20040;-74
2023/09/21 05:34:28;;;;;;;4.50;1.95;;;;;;;17.85;100.00;99666.75;4895174;29;20071;-73
2023/09/21 05:36:54;;;;;;;9.43;2.83;;;;;;;17.84;100.00;99659.72;4895183;29;20021;-74
2023/09/21 05:39:20;;;;;;;4.80;2.15;;;;;;;17.82;100.00;99653.81;4895429;29;20127;-74
2023/09/21 05:41:48;;;;;;;5.55;2.97;;;;;;;17.81;100.00;99662.97;4895199;29;20399;-74
2023/09/21 05:44:14;;;;;;;7.85;2.55;;;;;;;17.75;100.00;99659.44;4894391;29;20032;-73
2023/09/21 05:46:40;;;;;;;6.15;2.55;;;;;;;17.72;100.00;99655.41;4892751;29;20469;-74
2023/09/21 05:49:09;;;;;;;4.85;2.28;;;;;;;17.72;100.00;99655.41;4894234;29;20492;-74
2023/09/21 05:51:37;;;;;;;8.38;2.58;;;;;;;17.72;100.00;99652.72;4895109;29;20099;-73
2023/09/21 05:54:03;;;;;;;5.38;2.50;;;;;;;17.71;100.00;99644.88;4895664;29;20040;-73
2023/09/21 05:56:29;;;;;;;6.60;3.55;;;;;;;17.71;100.00;99656.50;4894721;29;20028;-74
2023/09/21 05:58:55;;;;;;;7.10;2.05;;;;;;;17.72;100.00;99646.53;4894863;29;20039;-74
2023/09/21 06:01:22;;;;;;;3.88;2.30;;;;;;;17.71;100.00;99651.13;4894243;29;20071;-73
2023/09/21 06:03:48;;;;;;;4.55;2.45;;;;;;;17.70;100.00;99659.47;4877179;29;20036;-74
2023/09/21 06:06:14;;;;;;;6.22;2.55;;;;;;;17.70;100.00;99654.06;4893676;29;20066;-73
2023/09/21 06:08:40;;;;;;;6.45;2.20;;;;;;;17.69;100.00;99647.88;4893960;29;20032;-74
2023/09/21 06:11:05;;;;;;;7.60;3.13;;;;;;;17.65;100.00;99640.59;4894603;29;20605;-73
2023/09/21 06:13:32;;;;;;;6.68;3.05;;;;;;;17.67;100.00;99655.41;4894638;29;20404;-72
2023/09/21 06:15:58;;;;;;;3.13;2.20;;;;;;;17.64;100.00;99647.09;4894736;29;20388;-73
2023/09/21 06:18:24;;;;;;;8.02;2.67;;;;;;;17.64;100.00;99650.59;4894740;29;20396;-73
2023/09/21 06:20:49;;;;;;;7.65;3.10;;;;;;;17.61;100.00;99661.13;4894603;29;20044;-73
2023/09/21 06:23:17;;;;;;;4.18;2.42;;;;;;;17.56;100.00;99655.72;4877815;29;20392;-73
2023/09/21 06:25:43;;;;;;;3.58;2.40;;;;;;;17.59;100.00;99669.47;4894314;29;20041;-73
2023/09/21 06:28:08;;;;;;;3.20;2.10;;;;;;;17.58;100.00;99667.84;4894391;29;20035;-71
2023/09/21 06:30:34;;;;;;;4.78;2.10;;;;;;;17.56;100.00;99658.44;4894569;29;20408;-73
2023/09/21 06:33:00;;;;;;;2.65;2.10;;;;;;;17.55;100.00;99664.88;4894593;29;20036;-73
2023/09/21 06:35:25;;;;;;;4.15;2.08;;;;;;;17.50;100.00;99665.69;4894610;29;20485;-73
2023/09/21 06:37:54;;;;;;;4.60;3.00;;;;;;;17.43;100.00;99662.47;4894407;29;20047;-73
2023/09/21 06:40:20;;;;;;;4.40;2.08;;;;;;;17.40;100.00;99663.81;4893859;29;20032;-74
2023/09/21 06:42:46;;;;;;;6.38;2.22;;;;;;;17.39;100.00;99666.78;4894213;29;20032;-74
2023/09/21 06:45:12;;;;;;;4.40;2.50;;;;;;;17.36;100.00;99670.81;4893019;29;20060;-74
2023/09/21 06:47:37;;;;;;;4.50;2.20;;;;;;;17.30;100.00;99661.94;4894350;29;20041;-73
2023/09/21 06:50:03;;;;;;;4.38;2.22;;;;;;;17.32;100.00;99661.69;4877481;29;20547;-74
2023/09/21 06:52:28;;;;;;;4.97;2.33;;;;;;;17.32;100.00;99669.78;4893928;29;20111;-74
2023/09/21 06:54:54;;;;;;;5.10;2.60;;;;;;;17.31;100.00;99654.66;4894266;29;20028;-74
2023/09/21 06:57:23;;;;;;;3.88;2.30;;;;;;;17.30;100.00;99655.75;4876996;29;20104;-74
2023/09/21 06:59:51;;;;;;;3.45;2.20;;;;;;;17.33;100.00;99663.28;4893668;29;20040;-74
2023/09/21 07:02:16;;;;;;;4.75;2.75;;;;;;;17.37;100.00;99660.84;4894120;29;20029;-74
2023/09/21 07:04:41;;;;;;;5.03;2.90;;;;;;;17.32;100.00;99656.28;4892552;29;20104;-74
2023/09/21 07:07:07;;;;;;;5.25;2.30;;;;;;;17.37;100.00;99669.75;4893861;29;20143;-74
2023/09/21 07:09:35;;;;;;;6.18;2.63;;;;;;;17.33;100.00;99660.59;4894114;29;20116;-73
2023/09/21 07:12:02;;;;;;;6.50;2.85;;;;;;;17.38;100.00;99679.47;4892092;29;20118;-72
2023/09/21 07:14:28;;;;;;;7.72;2.47;;;;;;;17.36;100.00;99676.22;4884460;29;20036;-75
2023/09/21 07:16:55;;;;;;;5.82;2.58;;;;;;;17.40;100.00;99681.91;4886877;29;20156;-71
2023/09/21 07:19:20;;;;;;;3.65;2.47;;;;;;;17.40;100.00;99677.31;4886376;29;20037;-70
2023/09/21 07:21:45;;;;;;;4.13;2.33;;;;;;;17.41;100.00;99675.41;4886210;29;20473;-70
2023/09/21 07:24:11;;;;;;;5.43;3.05;;;;;;;17.43;100.00;99674.06;4886483;29;20501;-72
2023/09/21 07:26:36;;;;;;;4.53;2.10;;;;;;;17.45;100.00;99671.91;4886989;29;20413;-70
2023/09/21 07:29:05;;;;;;;5.00;3.22;;;;;;;17.47;100.00;99672.44;4886707;29;20596;-70
2023/09/21 07:31:33;;;;;;;4.60;2.22;;;;;;;17.45;100.00;99665.72;4886563;29;20064;-69
2023/09/21 07:34:02;;;;;;;6.35;2.17;;;;;;;17.48;100.00;99671.38;4886181;29;20507;-70
2023/09/21 07:36:27;;;;;;;7.03;2.50;;;;;;;17.45;100.00;99666.53;4886541;29;20393;-71
2023/09/21 07:38:55;;;;;;;5.68;2.30;;;;;;;17.45;100.00;99666.53;4886073;29;20033;-71
2023/09/21 07:41:20;;;;;;;4.13;2.25;;;;;;;17.38;100.00;99667.88;4869560;29;20035;-71
2023/09/21 07:43:46;;;;;;;5.82;2.63;;;;;;;17.37;100.00;99669.75;4886118;29;20024;-70
2023/09/21 07:46:12;;;;;;;5.80;2.65;;;;;;;17.33;100.00;99670.56;4886175;29;20040;-71
2023/09/21 07:48:37;;;;;;;4.72;2.85;;;;;;;17.30;100.00;99672.72;4886356;29;20433;-70
2023/09/21 07:51:06;;;;;;;3.97;2.65;;;;;;;17.25;100.00;99661.13;4887568;29;20040;-69
2023/09/21 07:53:32;;;;;;;4.43;2.70;;;;;;;17.22;100.00;99675.16;4872324;29;20040;-70
2023/09/21 07:55:59;;;;;;;7.50;3.15;;;;;;;17.14;100.00;99675.69;4889754;29;20064;-70
2023/09/21 07:58:24;;;;;;;7.50;3.33;;;;;;;17.15;100.00;99671.91;4889531;29;20025;-71
2023/09/21 08:00:53;;;;;;;15.57;4.22;;;;;;;17.13;100.00;99676.75;4890169;29;20029;-71
2023/09/21 08:03:18;;;;;;;7.68;3.88;;;;;;;17.11;100.00;99670.81;4889698;29;20063;-70
2023/09/21 08:05:44;;;;;;;7.10;3.70;;;;;;;17.08;100.00;99667.59;4889310;29;20452;-70
2023/09/21 08:08:09;;;;;;;6.20;3.22;;;;;;;17.08;100.00;99670.31;4890134;29;20032;-75
2023/09/21 08:10:34;;;;;;;8.98;4.10;;;;;;;17.12;100.00;99669.75;4879880;29;20500;-70
2023/09/21 08:13:01;;;;;;;4.43;2.92;;;;;;;17.14;100.00;99678.38;4896742;29;20048;-70
2023/09/21 08:15:27;;;;;;;9.07;3.40;;;;;;;17.13;100.00;99684.84;4896289;29;20021;-70
2023/09/21 08:17:53;;;;;;;9.05;3.60;;;;;;;17.14;100.00;99681.09;4896863;29;20395;-70
2023/09/21 08:20:21;;;;;;;6.80;3.30;;;;;;;17.14;100.00;99684.59;4879854;29;20048;-70
2023/09/21 08:22:48;;;;;;;6.90;3.17;;;;;;;17.10;100.00;99680.78;4895493;29;20070;-70
2023/09/21 08:25:13;;;;;;;4.70;2.90;;;;;;;17.09;100.00;99687.28;4879749;29;20152;-70
2023/09/21 08:27:39;;;;;;;4.28;2.90;;;;;;;17.12;100.00;99700.19;4896540;29;20119;-70
2023/09/21 08:30:06;;;;;;;4.15;3.00;;;;;;;17.08;100.00;99696.41;4879671;29;20041;-70
2023/09/21 08:32:32;;;;;;;5.65;3.17;;;;;;;17.10;100.00;99696.97;4896420;29;20040;-70
2023/09/21 08:34:58;;;;;;;4.35;3.05;;;;;;;17.12;100.00;99710.19;4896286;29;20055;-70
2023/09/21 08:37:24;;;;;;;3.58;2.50;;;;;;;17.15;100.00;99715.03;4896548;29;20104;-70
2023/09/21 08:39:49;;;;;;;4.10;2.40;;;;;;;17.13;100.00;99717.97;4896506;29;20120;-70
2023/09/21 08:42:14;;;;;;;4.70;3.22;;;;;;;17.11;100.00;99722.84;4896359;29;20412;-70
2023/09/21 08:44:43;;;;;;;3.50;2.35;;;;;;;17.12;100.00;99729.84;4896176;29;20503;-70
2023/09/21 08:47:13;;;;;;;5.28;2.33;;;;;;;17.07;100.00;99717.16;4896385;29;20035;-70
2023/09/21 08:49:43;;;;;;;8.52;3.03;;;;;;;17.11;100.00;99728.22;4896289;29;20032;-68
2023/09/21 08:52:09;;;;;;;3.30;2.42;;;;;;;17.12;100.00;99737.13;4896328;29;20034;-73
2023/09/21 08:54:36;;;;;;;4.05;2.75;;;;;;;17.13;100.00;99752.19;4896337;29;20044;-69
2023/09/21 08:57:02;;;;;;;3.55;2.78;;;;;;;17.10;100.00;99753.53;4895455;29;20033;-69
2023/09/21 08:59:28;;;;;;;4.45;3.78;;;;;;;17.12;100.00;99754.09;4895600;29;20041;-69
2023/09/21 09:01:55;;;;;;;4.35;2.53;;;;;;;17.17;100.00;99769.47;4878384;29;20028;-69
2023/09/21 09:04:21;;;;;;;6.00;3.25;;;;;;;17.15;100.00;99760.81;4895568;29;20107;-69
2023/09/21 09:06:47;;;;;;;6.40;3.38;;;;;;;17.17;100.00;99745.22;4894375;29;20056;-69
2023/09/21 09:09:15;;;;;;;14.45;4.10;;;;;;;17.19;100.00;99754.66;4895808;29;20555;-69
2023/09/21 09:11:45;;;;;;;6.57;4.25;;;;;;;17.25;100.00;99755.47;4895607;29;20548;-69
2023/09/21 09:14:14;;;;;;;6.03;3.83;;;;;;;17.24;100.00;99751.97;4895993;29;20031;-69
2023/09/21 09:16:39;;;;;;;7.50;3.97;;;;;;;17.26;100.00;99747.09;4895814;29;20047;-70
2023/09/21 09:19:05;;;;;;;9.05;3.95;;;;;;;17.28;100.00;99733.34;4895449;29;20020;-69
2023/09/21 09:21:31;;;;;;;7.65;4.55;;;;;;;17.25;100.00;99745.47;4895748;29;20052;-70
2023/09/21 09:23:57;;;;;;;5.57;3.53;;;;;;;17.27;100.00;99759.50;4895434;29;20084;-69
2023/09/21 09:26:22;;;;;;;9.75;4.57;;;;;;;17.25;100.00;99758.16;4895323;29;20045;-69
2023/09/21 09:28:48;;;;;;;6.25;3.75;;;;;;;17.21;100.00;99760.59;4895634;29;20064;-70
2023/09/21 09:31:14;;;;;;;4.47;3.13;;;;;;;17.14;100.00;99759.22;4895529;29;20060;-69
2023/09/21 09:33:40;;;;;;;4.90;2.70;;;;;;;17.12;100.00;99740.63;4895263;29;20028;-70
2023/09/21 09:36:06;;;;;;;4.15;3.58;;;;;;;17.08;100.00;99734.97;4895302;29;20139;-69
2023/09/21 09:38:33;;;;;;;3.13;2.83;;;;;;;17.13;100.00;99727.94;4895095;29;20036;-70
2023/09/21 09:41:05;;;;;;;6.88;2.95;;;;;;;17.14;100.00;99724.19;4895058;29;20025;-70
2023/09/21 09:43:33;;;;;;;5.40;3.35;;;;;;;17.18;100.00;99726.06;4895260;29;20048;-70
2023/09/21 09:46:03;;;;;;;4.28;3.58;;;;;;;17.20;100.00;99733.88;4895134;29;20032;-70
2023/09/21 09:48:32;;;;;;;6.88;3.72;;;;;;;17.18;100.00;99731.44;4894990;29;20481;-69
2023/09/21 09:51:05;;;;;;;4.72;3.10;;;;;;;17.20;100.00;99726.63;4895056;29;20028;-70
2023/09/21 09:53:34;;;;;;;6.03;4.15;;;;;;;17.27;100.00;99734.44;4895008;29;20060;-70
2023/09/21 09:56:07;;;;;;;7.38;3.03;;;;;;;17.31;100.00;99740.91;4894829;29;20064;-70
2023/09/21 09:58:43;;;;;;;7.88;3.97;;;;;;;17.37;100.00;99737.16;4895066;29;20045;-69
2023/09/21 10:01:09;;;;;;;7.55;4.05;;;;;;;17.38;100.00;99725.28;4894788;29;20127;-71
2023/09/21 10:03:38;;;;;;;6.40;3.47;;;;;;;17.39;100.00;99724.19;4894882;29;20056;-70
2023/09/21 10:06:05;;;;;;;3.95;3.42;;;;;;;17.43;100.00;99730.66;4894474;29;20053;-70
2023/09/21 10:08:32;;;;;;;3.55;2.53;;;;;;;17.35;100.00;99739.31;4894839;29;20491;-70
2023/09/21 10:11:01;;;;;;;6.40;2.80;;;;;;;17.31;100.00;99730.13;4877797;29;20399;-70
2023/09/21 10:13:28;;;;;;;3.83;2.58;;;;;;;17.29;100.00;99738.50;4893420;29;20432;-69
2023/09/21 10:16:05;;;;;;;2.90;2.33;;;;;;;17.26;100.00;99739.00;4886027;29;20472;-70
2023/09/21 10:18:38;;;;;;;3.42;2.70;;;;;;;17.12;100.00;99726.34;4894272;29;20063;-70
2023/09/21 10:21:33;;;;;;;4.38;2.83;;;;;;;17.06;100.00;99731.72;4894580;29;20040;-70
2023/09/21 10:24:12;;;;;;;2.60;2.40;;;;;;;16.99;100.00;99727.66;4894430;29;20139;-70
2023/09/21 10:26:38;;;;;;;2.35;2.13;;;;;;;16.90;100.00;99722.00;4894531;29;20103;-70
2023/09/21 10:29:07;;;;;;;4.95;2.95;;;;;;;16.90;100.00;99723.84;4895882;29;20028;-70
2023/09/21 10:31:43;;;;;;;4.82;3.10;;;;;;;16.93;100.00;99718.78;4894596;29;20049;-70
2023/09/21 10:34:24;;;;;;;6.60;2.85;;;;;;;16.94;100.00;99716.88;4894362;29;20156;-70
2023/09/21 10:36:56;;;;;;;3.33;2.83;;;;;;;16.92;100.00;99708.25;4894467;29;20032;-70
2023/09/21 10:39:25;;;;;;;5.13;3.72;;;;;;;16.99;100.00;99709.59;4894212;29;20043;-70
2023/09/21 10:42:16;;;;;;;6.05;3.67;;;;;;;17.06;100.00;99704.78;4894034;29;20028;-70
2023/09/21 10:45:04;;;;;;;5.55;3.53;;;;;;;17.13;100.00;99695.63;4883900;29;20052;-70
2023/09/21 10:47:44;;;;;;;7.10;4.25;;;;;;;17.15;100.00;99704.25;4893909;29;20036;-70
2023/09/21 10:50:31;;;;;;;9.85;5.70;;;;;;;17.19;100.00;99694.56;4893701;29;20036;-70
2023/09/21 10:52:57;;;;;;;7.55;4.20;;;;;;;17.22;100.00;99677.84;4894141;29;20096;-70
2023/09/21 10:55:23;;;;;;;8.55;4.95;;;;;;;17.27;100.00;99677.84;4893931;29;20488;-70
2023/09/21 10:57:50;;;;;;;6.55;4.80;;;;;;;17.36;100.00;99686.19;4892901;29;20394;-70
2023/09/21 11:00:17;;;;;;;7.00;4.82;;;;;;;17.46;100.00;99680.81;4893547;29;20044;-70
2023/09/21 11:02:44;;;;;;;10.07;5.53;;;;;;;17.53;100.00;99674.06;4894227;29;20100;-70
2023/09/21 11:05:11;;;;;;;10.50;4.90;;;;;;;17.63;100.00;99665.16;4893405;29;20064;-70
2023/09/21 11:07:37;;;;;;;4.13;3.33;;;;;;;17.72;100.00;99670.78;4893796;29;20687;-69
2023/09/21 11:10:05;;;;;;;7.45;2.90;;;;;;;17.82;100.00;99661.91;4893934;29;20044;-69
2023/09/21 11:12:31;;;;;;;6.10;3.13;;;;;;;17.92;100.00;99661.84;4894013;29;20032;-70
2023/09/21 11:14:56;;;;;;;3.60;2.17;;;;;;;18.02;100.00;99652.94;4894149;29;20476;-69
2023/09/21 11:17:22;;;;;;;4.55;2.50;;;;;;;18.09;100.00;99648.06;4894154;29;20039;-70
2023/09/21 11:19:49;;;;;;;3.38;2.10;;;;;;;18.12;100.00;99639.41;4893887;29;20441;-70
2023/09/21 11:22:14;;;;;;;3.90;2.20;;;;;;;18.16;100.00;99626.97;4893919;29;20357;-70
2023/09/21 11:24:40;;;;;;;3.88;2.15;;;;;;;18.22;100.00;99642.06;4892696;29;20120;-70
2023/09/21 11:27:09;;;;;;;4.13;2.30;;;;;;;18.23;100.00;99632.88;4897255;29;20093;-70
2023/09/21 11:29:39;;;;;;;4.05;2.10;;;;;;;18.29;100.00;99642.56;4897288;29;20047;-70